createdAt,value
2023-08-14T00:01:33.870Z,3.20
2023-08-14T00:04:01.847Z,3.30
2023-08-14T00:06:29.887Z,3.17
2023-08-14T00:08:59.207Z,3.92
2023-08-14T00:11:27.147Z,2.78
2023-08-14T00:13:56.927Z,3.33
2023-08-14T00:16:26.340Z,2.83
2023-08-14T00:18:54.554Z,3.40
2023-08-14T00:21:22.689Z,3.38
2023-08-14T00:23:50.607Z,3.40
2023-08-14T00:26:19.922Z,3.25
2023-08-14T00:28:47.938Z,3.20
2023-08-14T00:31:18.130Z,3.28
2023-08-14T00:33:46.923Z,2.97
2023-08-14T00:36:15.251Z,3.47
2023-08-14T00:38:43.230Z,3.70
2023-08-14T00:41:12.173Z,3.13
2023-08-14T00:43:41.544Z,3.10
2023-08-14T00:46:10.812Z,3.20
2023-08-14T00:48:38.927Z,2.80
2023-08-14T00:51:06.179Z,3.05
2023-08-14T00:53:34.431Z,3.20
2023-08-14T00:56:04.357Z,3.25
2023-08-14T00:58:32.530Z,3.13
2023-08-14T01:01:02.293Z,3.50
2023-08-14T01:03:30.867Z,3.10
2023-08-14T01:05:59.618Z,3.30
2023-08-14T01:08:27.909Z,2.95
2023-08-14T01:11:01.736Z,3.30
2023-08-14T01:13:39.022Z,3.55
2023-08-14T01:16:11.845Z,3.00
2023-08-14T01:18:42.792Z,3.03
2023-08-14T01:21:27.153Z,3.53
2023-08-14T01:24:03.726Z,2.92
2023-08-14T01:26:33.789Z,3.47
2023-08-14T01:29:04.359Z,2.90
2023-08-14T01:31:32.724Z,3.53
2023-08-14T01:34:00.771Z,3.15
2023-08-14T01:36:35.787Z,3.67
2023-08-14T01:39:09.036Z,4.05
2023-08-14T01:41:45.538Z,3.50
2023-08-14T01:44:16.602Z,3.45
2023-08-14T01:46:48.626Z,3.55
2023-08-14T01:49:18.766Z,3.22
2023-08-14T01:51:48.628Z,3.20
2023-08-14T01:54:16.566Z,2.97
2023-08-14T01:56:46.077Z,3.53
2023-08-14T01:59:14.126Z,3.10
2023-08-14T02:01:42.203Z,3.50
2023-08-14T02:04:10.850Z,3.42
2023-08-14T02:06:38.825Z,3.40
2023-08-14T02:09:06.838Z,3.33
2023-08-14T02:11:36.790Z,3.35
2023-08-14T02:14:06.315Z,3.67
2023-08-14T02:16:34.398Z,3.00
2023-08-14T02:19:02.429Z,3.17
2023-08-14T02:21:30.408Z,3.63
2023-08-14T02:23:58.326Z,3.17
2023-08-14T02:26:26.223Z,3.30
2023-08-14T02:28:55.130Z,3.33
2023-08-14T02:31:24.482Z,3.17
2023-08-14T02:33:52.684Z,3.00
2023-08-14T02:36:20.592Z,3.08
2023-08-14T02:38:48.534Z,3.58
2023-08-14T02:41:16.495Z,3.80
2023-08-14T02:43:44.523Z,3.20
2023-08-14T02:46:12.602Z,3.60
2023-08-14T02:48:42.829Z,3.40
2023-08-14T02:51:10.854Z,3.63
2023-08-14T02:53:38.918Z,3.47
2023-08-14T02:56:06.942Z,3.10
2023-08-14T02:58:36.890Z,2.92
2023-08-14T03:01:06.109Z,3.53
2023-08-14T03:03:34.119Z,4.07
2023-08-14T03:06:04.092Z,3.33
2023-08-14T03:08:32.136Z,3.35
2023-08-14T03:11:00.122Z,4.13
2023-08-14T03:13:28.173Z,3.85
2023-08-14T03:15:56.151Z,3.67
2023-08-14T03:18:24.107Z,3.33
2023-08-14T03:20:52.103Z,3.47
2023-08-14T03:23:21.375Z,3.40
2023-08-14T03:25:49.479Z,3.90
2023-08-14T03:28:17.440Z,3.40
2023-08-14T03:30:46.920Z,3.58
2023-08-14T03:33:16.292Z,3.30
2023-08-14T03:35:44.248Z,3.40
2023-08-14T03:38:13.726Z,3.30
2023-08-14T03:40:43.089Z,3.58
2023-08-14T03:43:11.055Z,3.25
2023-08-14T03:45:39.019Z,3.55
2023-08-14T03:48:07.514Z,3.47
2023-08-14T03:50:35.568Z,3.60
2023-08-14T03:53:03.541Z,3.55
2023-08-14T03:55:31.480Z,3.03
2023-08-14T03:58:00.903Z,3.58
2023-08-14T04:00:28.859Z,3.38
2023-08-14T04:02:56.895Z,2.80
2023-08-14T04:05:24.936Z,3.28
2023-08-14T04:07:52.919Z,3.42
2023-08-14T04:10:20.908Z,3.40
2023-08-14T04:12:48.866Z,3.25
2023-08-14T04:15:19.330Z,3.72
2023-08-14T04:17:47.639Z,3.13
2023-08-14T04:20:15.711Z,3.50
2023-08-14T04:22:43.781Z,3.38
2023-08-14T04:25:11.730Z,3.55
2023-08-14T04:27:39.945Z,3.60
2023-08-14T04:30:09.908Z,3.65
2023-08-14T04:32:39.267Z,3.70
2023-08-14T04:35:09.242Z,3.33
2023-08-14T04:37:37.715Z,3.65
2023-08-14T04:40:07.034Z,3.13
2023-08-14T04:42:35.497Z,3.38
2023-08-14T04:45:05.500Z,4.03
2023-08-14T04:47:33.509Z,3.42
2023-08-14T04:50:04.261Z,3.47
2023-08-14T04:52:32.249Z,3.42
2023-08-14T04:55:00.285Z,3.70
2023-08-14T04:57:31.502Z,3.67
2023-08-14T04:59:59.556Z,3.88
2023-08-14T05:02:30.671Z,3.20
2023-08-14T05:04:58.687Z,3.15
2023-08-14T05:07:28.129Z,3.70
2023-08-14T05:09:56.165Z,3.92
2023-08-14T05:12:24.103Z,3.42
2023-08-14T05:14:54.701Z,4.00
2023-08-14T05:17:23.413Z,3.63
2023-08-14T05:19:52.269Z,3.35
2023-08-14T05:22:20.867Z,3.33
2023-08-14T05:24:50.521Z,3.40
2023-08-14T05:27:18.462Z,3.28
2023-08-14T05:29:48.782Z,3.30
2023-08-14T05:32:17.214Z,3.65
2023-08-14T05:34:45.348Z,3.38
2023-08-14T05:37:13.350Z,3.42
2023-08-14T05:39:41.293Z,3.67
2023-08-14T05:42:10.597Z,3.55
2023-08-14T05:44:38.538Z,3.67
2023-08-14T05:47:06.703Z,4.00
2023-08-14T05:49:34.669Z,3.63
2023-08-14T05:52:02.610Z,3.47
2023-08-14T05:54:30.576Z,4.13
2023-08-14T05:56:58.494Z,4.38
2023-08-14T05:59:27.801Z,4.10
2023-08-14T06:01:58.543Z,3.90
2023-08-14T06:04:28.679Z,3.65
2023-08-14T06:06:56.666Z,3.88
2023-08-14T06:09:24.784Z,3.50
2023-08-14T06:11:52.709Z,3.75
2023-08-14T06:14:20.723Z,3.40
2023-08-14T06:16:50.036Z,3.67
2023-08-14T06:19:18.002Z,3.63
2023-08-14T06:21:45.900Z,3.83
2023-08-14T06:24:13.826Z,3.53
2023-08-14T06:26:41.750Z,3.90
2023-08-14T06:29:09.873Z,3.38
2023-08-14T06:31:37.779Z,3.92
2023-08-14T06:34:08.158Z,3.90
2023-08-14T06:36:36.823Z,3.45
2023-08-14T06:39:06.288Z,3.92
2023-08-14T06:41:34.418Z,4.13
2023-08-14T06:44:08.002Z,3.53
2023-08-14T06:46:36.000Z,3.83
2023-08-14T06:49:03.938Z,3.90
2023-08-14T06:51:34.120Z,3.53
2023-08-14T06:54:02.171Z,3.90
2023-08-14T06:56:30.101Z,4.18
2023-08-14T06:58:58.233Z,3.65
2023-08-14T07:01:26.772Z,3.72
2023-08-14T07:03:54.862Z,4.32
2023-08-14T07:06:23.152Z,3.58
2023-08-14T07:08:52.437Z,3.83
2023-08-14T07:11:20.495Z,3.90
2023-08-14T07:13:49.016Z,3.40
2023-08-14T07:16:17.170Z,4.40
2023-08-14T07:18:45.147Z,3.97
2023-08-14T07:21:13.157Z,3.53
2023-08-14T07:23:41.075Z,3.53
2023-08-14T07:26:13.550Z,4.25
2023-08-14T07:28:42.006Z,3.72
2023-08-14T07:31:10.951Z,3.92
2023-08-14T07:33:39.067Z,3.63
2023-08-14T07:36:07.067Z,4.57
2023-08-14T07:38:35.052Z,4.32
2023-08-14T07:41:03.039Z,4.18
2023-08-14T07:43:32.350Z,4.07
2023-08-14T07:46:00.356Z,4.07
2023-08-14T07:48:28.351Z,3.60
2023-08-14T07:50:56.665Z,4.00
2023-08-14T07:53:24.770Z,3.83
2023-08-14T07:55:52.727Z,3.83
2023-08-14T07:58:20.677Z,3.78
2023-08-14T08:00:50.030Z,4.10
2023-08-14T08:03:17.941Z,4.10
2023-08-14T08:05:45.905Z,3.90
2023-08-14T08:08:13.874Z,3.75
2023-08-14T08:10:41.967Z,3.75
2023-08-14T08:13:10.510Z,3.63
2023-08-14T08:15:38.463Z,3.63
2023-08-14T08:18:07.832Z,3.90
2023-08-14T08:20:35.934Z,3.58
2023-08-14T08:23:05.164Z,3.30
2023-08-14T08:25:33.212Z,3.22
2023-08-14T08:28:01.192Z,3.17
2023-08-14T08:30:29.296Z,2.88
2023-08-14T08:33:03.138Z,3.20
2023-08-14T08:35:32.885Z,3.03
2023-08-14T08:38:00.860Z,3.25
2023-08-14T08:40:29.611Z,3.10
2023-08-14T08:42:58.367Z,3.15
2023-08-14T08:45:33.834Z,3.22
2023-08-14T08:48:02.993Z,3.20
2023-08-14T08:50:32.952Z,3.42
2023-08-14T08:53:01.417Z,3.10
2023-08-14T08:55:29.956Z,3.13
2023-08-14T08:57:59.593Z,2.67
2023-08-14T09:00:28.031Z,3.00
2023-08-14T09:02:56.263Z,3.58
2023-08-14T09:05:25.406Z,3.38
2023-08-14T09:07:54.768Z,3.08
2023-08-14T09:10:22.730Z,3.38
2023-08-14T09:12:51.143Z,2.97
2023-08-14T09:15:19.134Z,2.97
2023-08-14T09:17:47.165Z,3.03
2023-08-14T09:20:24.424Z,2.65
2023-08-14T09:23:02.601Z,2.28
2023-08-14T09:25:30.734Z,3.25
2023-08-14T09:27:59.431Z,3.10
2023-08-14T09:30:28.061Z,3.05
2023-08-14T09:32:56.845Z,2.85
2023-08-14T09:35:25.033Z,2.50
2023-08-14T09:37:53.018Z,2.85
2023-08-14T09:40:22.542Z,3.08
2023-08-14T09:42:51.630Z,2.78
2023-08-14T09:45:24.777Z,2.55
2023-08-14T09:47:53.821Z,2.83
2023-08-14T09:50:27.066Z,2.63
2023-08-14T09:52:58.244Z,2.65
2023-08-14T09:55:28.742Z,2.63
2023-08-14T09:57:57.542Z,2.63
2023-08-14T10:00:29.253Z,2.53
2023-08-14T10:03:02.126Z,2.75
2023-08-14T10:05:32.482Z,2.70
2023-08-14T10:08:00.889Z,2.22
2023-08-14T10:10:32.879Z,2.10
2023-08-14T10:13:05.950Z,2.65
2023-08-14T10:15:36.562Z,3.03
2023-08-14T10:18:11.224Z,2.38
2023-08-14T10:20:40.885Z,2.50
2023-08-14T10:23:10.540Z,2.40
2023-08-14T10:25:40.776Z,3.22
2023-08-14T10:28:09.820Z,2.35
2023-08-14T10:30:38.904Z,2.72
2023-08-14T10:33:07.848Z,2.47
2023-08-14T10:35:46.402Z,2.80
2023-08-14T10:38:18.157Z,2.75
2023-08-14T10:40:57.827Z,2.35
2023-08-14T10:43:28.392Z,2.53
2023-08-14T10:45:56.357Z,2.63
2023-08-14T10:48:24.999Z,2.58
2023-08-14T10:51:00.325Z,2.70
2023-08-14T10:53:28.393Z,2.47
2023-08-14T10:55:57.733Z,2.40
2023-08-14T10:58:48.295Z,2.88
2023-08-14T11:01:16.953Z,2.05
2023-08-14T11:04:03.765Z,2.83
2023-08-14T11:07:02.469Z,2.80
2023-08-14T11:09:34.205Z,3.20
2023-08-14T11:12:08.457Z,2.67
2023-08-14T11:14:37.964Z,2.95
2023-08-14T11:17:06.281Z,2.38
2023-08-14T11:19:36.168Z,2.80
2023-08-14T11:22:04.391Z,2.92
2023-08-14T11:24:34.357Z,2.60
2023-08-14T11:27:03.354Z,2.65
2023-08-14T11:29:33.293Z,2.72
2023-08-14T11:32:02.306Z,2.50
2023-08-14T11:34:33.360Z,2.25
2023-08-14T11:39:34.470Z,2.83
2023-08-14T11:42:03.947Z,2.55
2023-08-14T11:44:34.982Z,2.80
2023-08-14T11:47:04.282Z,2.20
2023-08-14T11:49:33.583Z,2.90
2023-08-14T11:52:04.381Z,2.70
2023-08-14T11:54:33.458Z,2.72
2023-08-14T11:57:03.766Z,2.83
2023-08-14T11:59:33.164Z,2.40
2023-08-14T12:02:02.045Z,2.10
2023-08-14T12:04:30.109Z,2.38
2023-08-14T12:06:58.050Z,2.20
2023-08-14T12:09:28.701Z,2.53
2023-08-14T12:11:56.866Z,2.72
2023-08-14T12:14:24.868Z,2.50
2023-08-14T12:16:54.238Z,2.92
2023-08-14T12:19:23.035Z,3.00
2023-08-14T12:21:58.147Z,2.78
2023-08-14T12:24:26.210Z,3.03
2023-08-14T12:26:54.724Z,3.22
2023-08-14T12:29:22.995Z,2.75
2023-08-14T12:31:51.074Z,2.90
2023-08-14T12:34:22.734Z,3.17
2023-08-14T12:36:50.814Z,3.15
2023-08-14T12:39:18.750Z,3.25
2023-08-14T12:41:46.800Z,2.90
2023-08-14T12:44:14.935Z,3.28
2023-08-14T12:46:42.941Z,3.08
2023-08-14T12:49:10.903Z,3.60
2023-08-14T12:51:42.483Z,3.20
2023-08-14T12:54:11.936Z,3.03
2023-08-14T12:56:42.094Z,3.10
2023-08-14T12:59:11.579Z,2.90
2023-08-14T13:01:40.002Z,2.45
2023-08-14T13:04:08.060Z,2.33
2023-08-14T13:06:36.403Z,2.88
2023-08-14T13:09:06.627Z,2.45
2023-08-14T13:11:34.918Z,2.67
2023-08-14T13:14:02.888Z,2.78
2023-08-14T13:16:30.911Z,2.80
2023-08-14T13:18:59.016Z,2.97
2023-08-14T13:21:27.000Z,2.80
2023-08-14T13:23:54.955Z,2.58
2023-08-14T13:26:26.926Z,2.42
2023-08-14T13:28:55.821Z,3.13
2023-08-14T13:31:23.937Z,3.08
2023-08-14T13:33:52.038Z,2.60
2023-08-14T13:36:19.980Z,3.13
2023-08-14T13:38:47.959Z,2.80
2023-08-14T13:41:15.906Z,2.65
2023-08-14T13:43:45.218Z,2.85
2023-08-14T13:46:13.296Z,3.15
2023-08-14T13:48:41.324Z,2.63
2023-08-14T13:51:09.282Z,3.53
2023-08-14T13:53:37.251Z,3.05
2023-08-14T13:56:05.379Z,3.05
2023-08-14T13:58:33.368Z,2.60
2023-08-14T14:01:03.372Z,2.50
2023-08-14T14:03:31.622Z,2.78
2023-08-14T14:05:59.729Z,2.90
2023-08-14T14:08:27.837Z,2.67
2023-08-14T14:10:55.957Z,3.00
2023-08-14T14:13:23.985Z,2.90
2023-08-14T14:15:52.065Z,2.70
2023-08-14T14:18:21.393Z,2.75
2023-08-14T14:20:50.334Z,2.35
2023-08-14T14:23:18.383Z,2.83
2023-08-14T14:25:46.309Z,2.40
2023-08-14T14:28:15.632Z,2.20
2023-08-14T14:30:43.603Z,2.70
2023-08-14T14:33:11.542Z,2.45
2023-08-14T14:35:40.844Z,2.60
2023-08-14T14:38:08.772Z,2.45
2023-08-14T14:40:36.904Z,2.85
2023-08-14T14:43:05.139Z,2.58
2023-08-14T14:45:35.093Z,2.85
2023-08-14T14:48:04.234Z,2.90
2023-08-14T14:50:32.273Z,2.63
2023-08-14T14:53:01.606Z,2.30
2023-08-14T14:55:29.547Z,2.20
2023-08-14T14:57:57.559Z,2.58
2023-08-14T15:00:27.152Z,2.33
2023-08-14T15:02:55.429Z,2.67
2023-08-14T15:07:54.329Z,3.30
2023-08-14T15:10:23.653Z,2.75
2023-08-14T15:12:53.816Z,2.65
2023-08-14T15:15:22.981Z,2.60
2023-08-14T15:17:51.034Z,2.65
2023-08-14T15:20:19.474Z,2.40
2023-08-14T15:22:47.499Z,2.50
2023-08-14T15:25:15.458Z,3.30
2023-08-14T15:27:44.815Z,2.97
2023-08-14T15:30:13.534Z,2.50
2023-08-14T15:32:41.537Z,2.47
2023-08-14T15:35:09.758Z,3.05
2023-08-14T15:37:37.928Z,3.15
2023-08-14T15:40:07.133Z,2.95
2023-08-14T15:42:35.200Z,3.15
2023-08-14T15:45:08.314Z,2.90
2023-08-14T15:47:37.130Z,2.92
2023-08-14T15:50:05.928Z,2.83
2023-08-14T15:52:33.930Z,2.88
2023-08-14T15:55:02.348Z,2.90
2023-08-14T15:57:30.384Z,3.20
2023-08-14T15:59:58.343Z,2.78
2023-08-14T16:02:27.773Z,2.60
2023-08-14T16:04:55.737Z,3.00
2023-08-14T16:07:23.697Z,3.13
2023-08-14T16:09:52.761Z,3.00
2023-08-14T16:12:20.994Z,3.15
2023-08-14T16:14:48.997Z,3.03
2023-08-14T16:17:17.208Z,3.40
2023-08-14T16:19:46.761Z,3.33
2023-08-14T16:22:14.805Z,3.17
2023-08-14T16:24:42.796Z,3.60
2023-08-14T16:27:11.319Z,3.60
2023-08-14T16:29:39.298Z,3.08
2023-08-14T16:32:07.420Z,3.42
2023-08-14T16:34:35.335Z,3.50
2023-08-14T16:37:05.805Z,2.92
2023-08-14T16:39:33.798Z,3.30
2023-08-14T16:42:01.699Z,3.22
2023-08-14T16:44:29.679Z,2.92
2023-08-14T16:46:57.620Z,3.30
2023-08-14T16:49:25.610Z,3.65
2023-08-14T16:51:53.544Z,3.20
2023-08-14T16:54:22.882Z,4.28
2023-08-14T16:56:50.834Z,3.17
2023-08-14T16:59:19.635Z,3.28
2023-08-14T17:01:47.726Z,3.70
2023-08-14T17:04:15.773Z,3.42
2023-08-14T17:06:43.766Z,3.47
2023-08-14T17:09:14.639Z,3.33
2023-08-14T17:11:44.454Z,3.47
2023-08-14T17:14:12.487Z,3.47
2023-08-14T17:16:40.661Z,3.70
2023-08-14T17:19:08.623Z,3.45
2023-08-14T17:21:36.564Z,3.65
2023-08-14T17:24:04.864Z,3.50
2023-08-14T17:26:32.854Z,2.83
2023-08-14T17:29:02.170Z,3.22
2023-08-14T17:31:30.542Z,3.42
2023-08-14T17:33:58.561Z,3.65
2023-08-14T17:36:26.519Z,3.00
2023-08-14T17:38:54.640Z,3.08
2023-08-14T17:41:22.585Z,3.30
2023-08-14T17:43:50.516Z,3.55
2023-08-14T17:46:20.692Z,3.65
2023-08-14T17:48:48.809Z,3.33
2023-08-14T17:51:16.886Z,4.00
2023-08-14T17:53:44.870Z,3.72
2023-08-14T17:56:13.199Z,4.15
2023-08-14T17:58:41.232Z,3.95
2023-08-14T18:01:09.173Z,4.32
2023-08-14T18:03:38.662Z,3.75
2023-08-14T18:06:06.772Z,4.30
2023-08-14T18:08:34.758Z,3.38
2023-08-14T18:11:03.419Z,3.55
2023-08-14T18:13:31.459Z,3.65
2023-08-14T18:16:01.278Z,3.30
2023-08-14T18:18:29.328Z,3.63
2023-08-14T18:20:58.717Z,3.78
2023-08-14T18:23:26.654Z,3.40
2023-08-14T18:25:55.632Z,3.95
2023-08-14T18:28:24.140Z,3.72
2023-08-14T18:30:52.386Z,4.05
2023-08-14T18:33:20.711Z,3.75
2023-08-14T18:35:48.644Z,4.38
2023-08-14T18:38:17.952Z,3.58
2023-08-14T18:40:46.988Z,3.75
2023-08-14T18:43:15.037Z,3.78
2023-08-14T18:45:43.043Z,3.60
2023-08-14T18:48:11.338Z,3.58
2023-08-14T18:50:39.364Z,3.83
2023-08-14T18:53:07.962Z,3.78
2023-08-14T18:55:40.425Z,4.03
2023-08-14T18:58:08.741Z,3.53
2023-08-14T19:00:37.068Z,4.70
2023-08-14T19:03:05.578Z,3.67
2023-08-14T19:05:33.573Z,4.10
2023-08-14T19:08:01.531Z,3.92
2023-08-14T19:10:29.531Z,3.85
2023-08-14T19:12:58.898Z,3.70
2023-08-14T19:15:27.801Z,3.90
2023-08-14T19:17:55.777Z,3.65
2023-08-14T19:20:23.768Z,3.42
2023-08-14T19:22:52.202Z,3.92
2023-08-14T19:25:20.174Z,3.97
2023-08-14T19:27:48.188Z,3.45
2023-08-14T19:30:17.570Z,3.70
2023-08-14T19:32:45.613Z,3.42
2023-08-14T19:35:13.571Z,3.45
2023-08-14T19:37:41.585Z,4.80
2023-08-14T19:40:12.034Z,3.88
2023-08-14T19:42:42.981Z,3.38
2023-08-14T19:45:12.187Z,3.88
2023-08-14T19:47:42.001Z,3.05
2023-08-14T19:50:10.340Z,3.17
2023-08-14T19:52:38.274Z,3.58
2023-08-14T19:55:07.263Z,3.38
2023-08-14T19:57:35.283Z,3.17
2023-08-14T20:00:06.099Z,4.03
2023-08-14T20:02:34.320Z,3.75
2023-08-14T20:05:05.836Z,3.85
2023-08-14T20:07:33.949Z,3.55
2023-08-14T20:10:01.907Z,3.90
2023-08-14T20:12:29.894Z,3.40
2023-08-14T20:14:58.922Z,3.45
2023-08-14T20:17:26.902Z,3.45
2023-08-14T20:19:55.064Z,3.33
2023-08-14T20:22:25.621Z,4.40
2023-08-14T20:24:53.765Z,3.60
2023-08-14T20:27:22.114Z,3.22
2023-08-14T20:29:50.276Z,3.22
2023-08-14T20:32:20.317Z,3.28
2023-08-14T20:34:48.356Z,4.07
2023-08-14T20:37:16.459Z,3.30
2023-08-14T20:39:47.200Z,3.50
2023-08-14T20:42:15.264Z,3.80
2023-08-14T20:44:43.235Z,3.90
2023-08-14T20:47:11.492Z,3.63
2023-08-14T20:49:39.396Z,3.58
2023-08-14T20:52:07.500Z,3.60
2023-08-14T20:54:35.571Z,4.25
2023-08-14T20:57:05.081Z,3.85
2023-08-14T20:59:33.032Z,3.80
2023-08-14T21:02:01.018Z,3.78
2023-08-14T21:04:28.978Z,3.00
2023-08-14T21:06:56.957Z,3.42
2023-08-14T21:09:24.907Z,3.38
2023-08-14T21:11:53.594Z,3.17
2023-08-14T21:14:23.025Z,3.75
2023-08-14T21:16:51.024Z,3.00
2023-08-14T21:19:19.000Z,3.47
2023-08-14T21:21:46.993Z,3.08
2023-08-14T21:24:14.996Z,3.30
2023-08-14T21:26:42.991Z,3.30
2023-08-14T21:29:10.910Z,2.83
2023-08-14T21:31:40.242Z,3.22
2023-08-14T21:34:10.738Z,3.72
2023-08-14T21:36:38.732Z,3.38
2023-08-14T21:39:06.692Z,3.40
2023-08-14T21:41:34.688Z,2.85
2023-08-14T21:44:02.694Z,3.38
2023-08-14T21:46:34.292Z,2.80
2023-08-14T21:49:05.059Z,2.80
2023-08-14T21:51:33.036Z,3.13
2023-08-14T21:54:00.992Z,2.78
2023-08-14T21:56:29.236Z,3.15
2023-08-14T21:58:57.217Z,3.00
2023-08-14T22:01:25.329Z,2.90
2023-08-14T22:03:53.307Z,3.85
2023-08-14T22:06:22.614Z,4.20
2023-08-14T22:08:50.580Z,2.97
2023-08-14T22:11:18.590Z,4.00
2023-08-14T22:13:46.579Z,3.97
2023-08-14T22:16:14.686Z,3.97
2023-08-14T22:18:42.593Z,3.80
2023-08-14T22:21:10.600Z,3.53
2023-08-14T22:23:40.005Z,3.10
2023-08-14T22:26:08.621Z,2.83
2023-08-14T22:28:36.682Z,2.67
2023-08-14T22:31:04.637Z,2.75
2023-08-14T22:33:32.665Z,3.03
2023-08-14T22:36:00.838Z,2.15
2023-08-14T22:38:29.582Z,2.80
2023-08-14T22:40:59.054Z,2.70
2023-08-14T22:43:26.969Z,2.50
2023-08-14T22:45:54.917Z,3.10
2023-08-14T22:48:23.040Z,3.05
2023-08-14T22:50:51.045Z,2.95
2023-08-14T22:53:19.801Z,2.70
2023-08-14T22:55:49.808Z,2.78
2023-08-14T22:58:19.272Z,2.80
2023-08-14T23:00:47.485Z,2.90
2023-08-14T23:03:15.460Z,2.75
2023-08-14T23:05:43.432Z,2.47
2023-08-14T23:08:11.350Z,2.28
2023-08-14T23:10:39.339Z,2.50
2023-08-14T23:13:07.319Z,2.30
2023-08-14T23:15:36.835Z,2.83
2023-08-14T23:18:05.371Z,2.25
2023-08-14T23:20:33.471Z,2.65
2023-08-14T23:23:01.421Z,2.30
2023-08-14T23:25:29.369Z,2.70
2023-08-14T23:27:57.312Z,2.60
2023-08-14T23:30:25.385Z,2.10
2023-08-14T23:32:54.680Z,2.25
2023-08-14T23:35:22.606Z,2.20
2023-08-14T23:37:52.269Z,2.33
2023-08-14T23:40:20.210Z,2.50
2023-08-14T23:42:48.140Z,2.15
2023-08-14T23:45:16.178Z,1.92
2023-08-14T23:47:44.159Z,2.30
2023-08-14T23:50:13.514Z,2.17
2023-08-14T23:52:41.424Z,2.25
2023-08-14T23:55:10.422Z,2.22
2023-08-14T23:57:38.413Z,2.40
